sensor_id;sensor_type;location;lat;lon;timestamp;P1;durP1;ratioP1;P2;durP2;ratioP2
71916;SDS011;59793;46.506;6.674;2024-01-25T00:01:16;7.13;;;3.60;;
71916;SDS011;59793;46.506;6.674;2024-01-25T00:03:41;4.80;;;2.50;;
71916;SDS011;59793;46.506;6.674;2024-01-25T00:06:07;4.00;;;2.20;;
71916;SDS011;59793;46.506;6.674;2024-01-25T00:08:33;7.40;;;1.97;;
71916;SDS011;59793;46.506;6.674;2024-01-25T00:10:59;5.55;;;2.08;;
71916;SDS011;59793;46.506;6.674;2024-01-25T00:13:25;5.07;;;2.27;;
71916;SDS011;59793;46.506;6.674;2024-01-25T00:15:50;8.97;;;2.47;;
71916;SDS011;59793;46.506;6.674;2024-01-25T00:18:16;3.63;;;1.88;;
71916;SDS011;59793;46.506;6.674;2024-01-25T00:20:42;3.50;;;1.70;;
71916;SDS011;59793;46.506;6.674;2024-01-25T00:23:07;3.37;;;1.77;;
71916;SDS011;59793;46.506;6.674;2024-01-25T00:25:32;3.27;;;2.27;;
71916;SDS011;59793;46.506;6.674;2024-01-25T00:27:57;3.37;;;1.87;;
71916;SDS011;59793;46.506;6.674;2024-01-25T00:30:23;4.28;;;1.58;;
71916;SDS011;59793;46.506;6.674;2024-01-25T00:32:48;2.73;;;1.60;;
71916;SDS011;59793;46.506;6.674;2024-01-25T00:35:14;3.23;;;1.80;;
71916;SDS011;59793;46.506;6.674;2024-01-25T00:37:40;2.80;;;1.43;;
71916;SDS011;59793;46.506;6.674;2024-01-25T00:40:06;4.25;;;1.55;;
71916;SDS011;59793;46.506;6.674;2024-01-25T00:42:33;3.75;;;1.60;;
71916;SDS011;59793;46.506;6.674;2024-01-25T00:45:05;6.40;;;2.08;;
71916;SDS011;59793;46.506;6.674;2024-01-25T00:47:31;2.83;;;1.63;;
71916;SDS011;59793;46.506;6.674;2024-01-25T00:49:57;2.88;;;1.20;;
71916;SDS011;59793;46.506;6.674;2024-01-25T00:52:22;4.97;;;2.20;;
71916;SDS011;59793;46.506;6.674;2024-01-25T00:54:48;3.30;;;1.70;;
71916;SDS011;59793;46.506;6.674;2024-01-25T00:57:13;9.07;;;2.07;;
71916;SDS011;59793;46.506;6.674;2024-01-25T00:59:39;3.97;;;2.13;;
71916;SDS011;59793;46.506;6.674;2024-01-25T01:02:04;5.53;;;2.70;;
71916;SDS011;59793;46.506;6.674;2024-01-25T01:04:34;5.63;;;3.10;;
71916;SDS011;59793;46.506;6.674;2024-01-25T01:07:00;6.80;;;3.17;;
71916;SDS011;59793;46.506;6.674;2024-01-25T01:09:25;5.47;;;2.73;;
71916;SDS011;59793;46.506;6.674;2024-01-25T01:11:50;6.05;;;3.03;;
71916;SDS011;59793;46.506;6.674;2024-01-25T01:16:43;6.87;;;2.77;;
71916;SDS011;59793;46.506;6.674;2024-01-25T01:19:08;9.02;;;2.60;;
71916;SDS011;59793;46.506;6.674;2024-01-25T01:21:34;9.38;;;3.50;;
71916;SDS011;59793;46.506;6.674;2024-01-25T01:24:00;8.52;;;2.90;;
71916;SDS011;59793;46.506;6.674;2024-01-25T01:26:26;6.23;;;2.70;;
71916;SDS011;59793;46.506;6.674;2024-01-25T01:28:51;7.70;;;3.33;;
71916;SDS011;59793;46.506;6.674;2024-01-25T01:31:16;11.77;;;3.97;;
71916;SDS011;59793;46.506;6.674;2024-01-25T01:33:42;10.50;;;3.87;;
71916;SDS011;59793;46.506;6.674;2024-01-25T01:36:07;5.10;;;2.60;;
71916;SDS011;59793;46.506;6.674;2024-01-25T01:38:32;4.23;;;2.37;;
71916;SDS011;59793;46.506;6.674;2024-01-25T01:40:58;4.30;;;2.40;;
71916;SDS011;59793;46.506;6.674;2024-01-25T01:43:23;5.53;;;2.00;;
71916;SDS011;59793;46.506;6.674;2024-01-25T01:45:48;4.55;;;2.50;;
71916;SDS011;59793;46.506;6.674;2024-01-25T01:48:14;5.07;;;2.13;;
71916;SDS011;59793;46.506;6.674;2024-01-25T01:50:42;5.03;;;1.75;;
71916;SDS011;59793;46.506;6.674;2024-01-25T01:53:09;2.85;;;1.58;;
71916;SDS011;59793;46.506;6.674;2024-01-25T01:55:35;2.78;;;1.70;;
71916;SDS011;59793;46.506;6.674;2024-01-25T01:58:01;2.50;;;1.30;;
71916;SDS011;59793;46.506;6.674;2024-01-25T02:00:27;2.78;;;1.60;;
71916;SDS011;59793;46.506;6.674;2024-01-25T02:02:55;2.92;;;2.03;;
71916;SDS011;59793;46.506;6.674;2024-01-25T02:05:22;2.55;;;1.58;;
71916;SDS011;59793;46.506;6.674;2024-01-25T02:07:48;2.97;;;1.57;;
71916;SDS011;59793;46.506;6.674;2024-01-25T02:10:13;2.53;;;1.60;;
71916;SDS011;59793;46.506;6.674;2024-01-25T02:12:38;2.10;;;1.20;;
71916;SDS011;59793;46.506;6.674;2024-01-25T02:15:04;3.43;;;1.20;;
71916;SDS011;59793;46.506;6.674;2024-01-25T02:17:30;3.72;;;1.30;;
71916;SDS011;59793;46.506;6.674;2024-01-25T02:19:55;2.77;;;1.53;;
71916;SDS011;59793;46.506;6.674;2024-01-25T02:22:20;2.47;;;1.40;;
71916;SDS011;59793;46.506;6.674;2024-01-25T02:24:46;1.83;;;1.00;;
71916;SDS011;59793;46.506;6.674;2024-01-25T02:27:11;1.67;;;0.98;;
71916;SDS011;59793;46.506;6.674;2024-01-25T02:29:36;2.83;;;1.33;;
71916;SDS011;59793;46.506;6.674;2024-01-25T02:32:02;2.50;;;1.10;;
71916;SDS011;59793;46.506;6.674;2024-01-25T02:34:28;2.08;;;0.82;;
71916;SDS011;59793;46.506;6.674;2024-01-25T02:36:53;1.90;;;0.93;;
71916;SDS011;59793;46.506;6.674;2024-01-25T02:39:18;2.30;;;1.27;;
71916;SDS011;59793;46.506;6.674;2024-01-25T02:41:43;2.43;;;1.00;;
71916;SDS011;59793;46.506;6.674;2024-01-25T02:44:09;0.97;;;0.80;;
71916;SDS011;59793;46.506;6.674;2024-01-25T02:46:36;3.35;;;1.10;;
71916;SDS011;59793;46.506;6.674;2024-01-25T02:49:01;2.60;;;1.20;;
71916;SDS011;59793;46.506;6.674;2024-01-25T02:51:27;1.58;;;0.90;;
71916;SDS011;59793;46.506;6.674;2024-01-25T02:53:52;3.57;;;1.30;;
71916;SDS011;59793;46.506;6.674;2024-01-25T02:56:17;4.32;;;1.35;;
71916;SDS011;59793;46.506;6.674;2024-01-25T02:58:43;3.40;;;2.40;;
71916;SDS011;59793;46.506;6.674;2024-01-25T03:01:08;3.65;;;1.90;;
71916;SDS011;59793;46.506;6.674;2024-01-25T03:03:33;4.15;;;2.08;;
71916;SDS011;59793;46.506;6.674;2024-01-25T03:05:59;3.33;;;1.47;;
71916;SDS011;59793;46.506;6.674;2024-01-25T03:08:25;2.30;;;1.20;;
71916;SDS011;59793;46.506;6.674;2024-01-25T03:10:50;4.77;;;1.63;;
71916;SDS011;59793;46.506;6.674;2024-01-25T03:13:15;1.53;;;0.90;;
71916;SDS011;59793;46.506;6.674;2024-01-25T03:15:44;2.47;;;1.38;;
71916;SDS011;59793;46.506;6.674;2024-01-25T03:18:09;2.00;;;1.10;;
71916;SDS011;59793;46.506;6.674;2024-01-25T03:20:35;3.20;;;1.30;;
71916;SDS011;59793;46.506;6.674;2024-01-25T03:23:00;2.13;;;1.30;;
71916;SDS011;59793;46.506;6.674;2024-01-25T03:25:26;2.10;;;1.10;;
71916;SDS011;59793;46.506;6.674;2024-01-25T03:27:51;2.80;;;1.20;;
71916;SDS011;59793;46.506;6.674;2024-01-25T03:30:16;3.20;;;1.10;;
71916;SDS011;59793;46.506;6.674;2024-01-25T03:32:42;3.20;;;1.17;;
71916;SDS011;59793;46.506;6.674;2024-01-25T03:35:07;2.60;;;0.90;;
71916;SDS011;59793;46.506;6.674;2024-01-25T03:37:33;2.23;;;1.13;;
71916;SDS011;59793;46.506;6.674;2024-01-25T03:39:58;2.13;;;0.97;;
71916;SDS011;59793;46.506;6.674;2024-01-25T03:42:23;2.90;;;1.05;;
71916;SDS011;59793;46.506;6.674;2024-01-25T03:44:49;1.93;;;0.93;;
71916;SDS011;59793;46.506;6.674;2024-01-25T03:47:14;1.30;;;0.83;;
71916;SDS011;59793;46.506;6.674;2024-01-25T03:49:39;2.67;;;1.13;;
71916;SDS011;59793;46.506;6.674;2024-01-25T03:52:05;1.90;;;0.83;;
71916;SDS011;59793;46.506;6.674;2024-01-25T03:54:30;1.77;;;0.85;;
71916;SDS011;59793;46.506;6.674;2024-01-25T03:56:56;4.00;;;1.23;;
71916;SDS011;59793;46.506;6.674;2024-01-25T03:59:21;3.50;;;1.30;;
71916;SDS011;59793;46.506;6.674;2024-01-25T04:01:47;1.03;;;0.60;;
71916;SDS011;59793;46.506;6.674;2024-01-25T04:04:13;2.72;;;1.10;;
71916;SDS011;59793;46.506;6.674;2024-01-25T04:06:43;1.98;;;0.98;;
71916;SDS011;59793;46.506;6.674;2024-01-25T04:09:11;4.68;;;0.85;;
71916;SDS011;59793;46.506;6.674;2024-01-25T04:11:36;3.75;;;1.10;;
71916;SDS011;59793;46.506;6.674;2024-01-25T04:14:02;6.13;;;0.95;;
71916;SDS011;59793;46.506;6.674;2024-01-25T04:16:28;2.17;;;1.10;;
71916;SDS011;59793;46.506;6.674;2024-01-25T04:18:53;1.30;;;0.80;;
71916;SDS011;59793;46.506;6.674;2024-01-25T04:21:18;2.42;;;1.00;;
71916;SDS011;59793;46.506;6.674;2024-01-25T04:23:44;2.03;;;1.00;;
71916;SDS011;59793;46.506;6.674;2024-01-25T04:26:09;1.63;;;0.88;;
71916;SDS011;59793;46.506;6.674;2024-01-25T04:28:34;1.67;;;0.90;;
71916;SDS011;59793;46.506;6.674;2024-01-25T04:31:01;3.83;;;1.70;;
71916;SDS011;59793;46.506;6.674;2024-01-25T04:33:28;2.78;;;1.40;;
71916;SDS011;59793;46.506;6.674;2024-01-25T04:35:53;3.97;;;1.73;;
71916;SDS011;59793;46.506;6.674;2024-01-25T04:38:18;3.57;;;1.53;;
71916;SDS011;59793;46.506;6.674;2024-01-25T04:40:44;6.88;;;1.92;;
71916;SDS011;59793;46.506;6.674;2024-01-25T04:43:09;4.05;;;1.80;;
71916;SDS011;59793;46.506;6.674;2024-01-25T04:45:34;4.40;;;1.70;;
71916;SDS011;59793;46.506;6.674;2024-01-25T04:47:59;4.00;;;1.90;;
71916;SDS011;59793;46.506;6.674;2024-01-25T04:50:25;2.85;;;1.88;;
71916;SDS011;59793;46.506;6.674;2024-01-25T04:52:50;2.60;;;1.87;;
71916;SDS011;59793;46.506;6.674;2024-01-25T04:55:15;5.83;;;1.80;;
71916;SDS011;59793;46.506;6.674;2024-01-25T04:57:41;3.67;;;1.53;;
71916;SDS011;59793;46.506;6.674;2024-01-25T05:00:06;6.25;;;2.25;;
71916;SDS011;59793;46.506;6.674;2024-01-25T05:02:33;6.82;;;2.35;;
71916;SDS011;59793;46.506;6.674;2024-01-25T05:04:58;7.37;;;2.00;;
71916;SDS011;59793;46.506;6.674;2024-01-25T05:07:24;6.13;;;2.33;;
71916;SDS011;59793;46.506;6.674;2024-01-25T05:09:49;5.93;;;1.38;;
71916;SDS011;59793;46.506;6.674;2024-01-25T05:12:14;6.87;;;1.70;;
71916;SDS011;59793;46.506;6.674;2024-01-25T05:14:39;3.25;;;1.50;;
71916;SDS011;59793;46.506;6.674;2024-01-25T05:17:05;3.60;;;1.00;;
71916;SDS011;59793;46.506;6.674;2024-01-25T05:19:30;1.85;;;0.80;;
71916;SDS011;59793;46.506;6.674;2024-01-25T05:21:56;2.77;;;1.07;;
71916;SDS011;59793;46.506;6.674;2024-01-25T05:24:21;2.55;;;0.80;;
71916;SDS011;59793;46.506;6.674;2024-01-25T05:26:46;3.83;;;0.98;;
71916;SDS011;59793;46.506;6.674;2024-01-25T05:29:12;4.43;;;0.80;;
71916;SDS011;59793;46.506;6.674;2024-01-25T05:31:37;2.20;;;1.13;;
71916;SDS011;59793;46.506;6.674;2024-01-25T05:34:02;1.00;;;0.70;;
71916;SDS011;59793;46.506;6.674;2024-01-25T05:36:28;2.30;;;1.10;;
71916;SDS011;59793;46.506;6.674;2024-01-25T05:38:53;2.80;;;1.00;;
71916;SDS011;59793;46.506;6.674;2024-01-25T05:41:18;1.25;;;0.90;;
71916;SDS011;59793;46.506;6.674;2024-01-25T05:43:44;3.07;;;0.97;;
71916;SDS011;59793;46.506;6.674;2024-01-25T05:46:09;2.77;;;1.30;;
71916;SDS011;59793;46.506;6.674;2024-01-25T05:48:34;2.97;;;1.20;;
71916;SDS011;59793;46.506;6.674;2024-01-25T05:51:00;4.50;;;1.38;;
71916;SDS011;59793;46.506;6.674;2024-01-25T05:53:25;2.60;;;1.30;;
71916;SDS011;59793;46.506;6.674;2024-01-25T05:55:50;2.25;;;1.02;;
71916;SDS011;59793;46.506;6.674;2024-01-25T05:58:16;1.92;;;0.95;;
71916;SDS011;59793;46.506;6.674;2024-01-25T06:00:42;1.85;;;1.00;;
71916;SDS011;59793;46.506;6.674;2024-01-25T06:03:07;6.03;;;1.35;;
71916;SDS011;59793;46.506;6.674;2024-01-25T06:05:33;2.17;;;1.23;;
71916;SDS011;59793;46.506;6.674;2024-01-25T06:07:58;2.75;;;1.23;;
71916;SDS011;59793;46.506;6.674;2024-01-25T06:10:23;1.83;;;1.00;;
71916;SDS011;59793;46.506;6.674;2024-01-25T06:12:48;7.10;;;1.23;;
71916;SDS011;59793;46.506;6.674;2024-01-25T06:15:14;3.23;;;1.40;;
71916;SDS011;59793;46.506;6.674;2024-01-25T06:17:40;4.77;;;1.30;;
71916;SDS011;59793;46.506;6.674;2024-01-25T06:20:05;1.83;;;0.90;;
71916;SDS011;59793;46.506;6.674;2024-01-25T06:22:31;2.37;;;1.30;;
71916;SDS011;59793;46.506;6.674;2024-01-25T06:24:56;6.20;;;1.57;;
71916;SDS011;59793;46.506;6.674;2024-01-25T06:27:21;2.43;;;1.47;;
71916;SDS011;59793;46.506;6.674;2024-01-25T06:29:47;3.33;;;1.65;;
71916;SDS011;59793;46.506;6.674;2024-01-25T06:32:12;2.13;;;1.27;;
71916;SDS011;59793;46.506;6.674;2024-01-25T06:34:37;3.77;;;1.70;;
71916;SDS011;59793;46.506;6.674;2024-01-25T06:37:03;4.03;;;1.30;;
71916;SDS011;59793;46.506;6.674;2024-01-25T06:39:28;3.80;;;1.77;;
71916;SDS011;59793;46.506;6.674;2024-01-25T06:41:54;4.25;;;1.48;;
71916;SDS011;59793;46.506;6.674;2024-01-25T06:44:19;2.27;;;1.10;;
71916;SDS011;59793;46.506;6.674;2024-01-25T06:46:44;3.33;;;1.30;;
71916;SDS011;59793;46.506;6.674;2024-01-25T06:49:10;2.15;;;1.23;;
71916;SDS011;59793;46.506;6.674;2024-01-25T06:51:35;3.30;;;1.43;;
71916;SDS011;59793;46.506;6.674;2024-01-25T06:54:01;2.53;;;1.13;;
71916;SDS011;59793;46.506;6.674;2024-01-25T06:56:26;3.67;;;1.20;;
71916;SDS011;59793;46.506;6.674;2024-01-25T06:58:51;2.03;;;1.38;;
71916;SDS011;59793;46.506;6.674;2024-01-25T07:01:23;3.83;;;1.73;;
71916;SDS011;59793;46.506;6.674;2024-01-25T07:03:48;3.30;;;1.75;;
71916;SDS011;59793;46.506;6.674;2024-01-25T07:06:17;2.90;;;1.67;;
71916;SDS011;59793;46.506;6.674;2024-01-25T07:08:43;2.78;;;1.40;;
71916;SDS011;59793;46.506;6.674;2024-01-25T07:11:09;2.73;;;1.40;;
71916;SDS011;59793;46.506;6.674;2024-01-25T07:13:34;3.90;;;1.50;;
71916;SDS011;59793;46.506;6.674;2024-01-25T07:15:59;3.08;;;1.65;;
71916;SDS011;59793;46.506;6.674;2024-01-25T07:18:24;3.33;;;1.33;;
71916;SDS011;59793;46.506;6.674;2024-01-25T07:20:50;4.17;;;1.70;;
71916;SDS011;59793;46.506;6.674;2024-01-25T07:23:16;2.97;;;1.63;;
71916;SDS011;59793;46.506;6.674;2024-01-25T07:25:42;5.07;;;2.10;;
71916;SDS011;59793;46.506;6.674;2024-01-25T07:28:07;5.30;;;2.40;;
71916;SDS011;59793;46.506;6.674;2024-01-25T07:30:32;6.45;;;2.10;;
71916;SDS011;59793;46.506;6.674;2024-01-25T07:32:58;3.45;;;2.22;;
71916;SDS011;59793;46.506;6.674;2024-01-25T07:35:23;4.47;;;2.40;;
71916;SDS011;59793;46.506;6.674;2024-01-25T07:37:48;5.37;;;2.30;;
71916;SDS011;59793;46.506;6.674;2024-01-25T07:40:14;5.53;;;2.60;;
71916;SDS011;59793;46.506;6.674;2024-01-25T07:42:39;8.38;;;3.20;;
71916;SDS011;59793;46.506;6.674;2024-01-25T07:45:04;6.25;;;3.42;;
71916;SDS011;59793;46.506;6.674;2024-01-25T07:47:30;5.88;;;3.42;;
71916;SDS011;59793;46.506;6.674;2024-01-25T07:49:55;7.43;;;4.23;;
71916;SDS011;59793;46.506;6.674;2024-01-25T07:52:21;5.73;;;3.57;;
71916;SDS011;59793;46.506;6.674;2024-01-25T07:54:46;6.20;;;3.08;;
71916;SDS011;59793;46.506;6.674;2024-01-25T07:57:11;6.07;;;2.97;;
71916;SDS011;59793;46.506;6.674;2024-01-25T07:59:37;6.03;;;3.50;;
71916;SDS011;59793;46.506;6.674;2024-01-25T08:02:02;6.43;;;2.87;;
71916;SDS011;59793;46.506;6.674;2024-01-25T08:04:28;7.47;;;3.07;;
71916;SDS011;59793;46.506;6.674;2024-01-25T08:06:53;4.37;;;2.97;;
71916;SDS011;59793;46.506;6.674;2024-01-25T08:09:18;8.70;;;3.13;;
71916;SDS011;59793;46.506;6.674;2024-01-25T08:11:44;5.77;;;2.87;;
71916;SDS011;59793;46.506;6.674;2024-01-25T08:14:10;5.07;;;2.77;;
71916;SDS011;59793;46.506;6.674;2024-01-25T08:16:36;5.05;;;2.47;;
71916;SDS011;59793;46.506;6.674;2024-01-25T08:19:01;6.10;;;2.60;;
71916;SDS011;59793;46.506;6.674;2024-01-25T08:21:26;3.13;;;2.00;;
71916;SDS011;59793;46.506;6.674;2024-01-25T08:23:52;5.10;;;2.40;;
71916;SDS011;59793;46.506;6.674;2024-01-25T08:26:17;5.00;;;2.67;;
71916;SDS011;59793;46.506;6.674;2024-01-25T08:28:42;7.47;;;1.93;;
71916;SDS011;59793;46.506;6.674;2024-01-25T08:31:09;5.40;;;1.98;;
71916;SDS011;59793;46.506;6.674;2024-01-25T08:33:34;4.67;;;2.07;;
71916;SDS011;59793;46.506;6.674;2024-01-25T08:36:00;4.10;;;1.60;;
71916;SDS011;59793;46.506;6.674;2024-01-25T08:38:25;8.30;;;2.43;;
71916;SDS011;59793;46.506;6.674;2024-01-25T08:40:50;6.43;;;2.50;;
71916;SDS011;59793;46.506;6.674;2024-01-25T08:43:16;5.03;;;2.47;;
71916;SDS011;59793;46.506;6.674;2024-01-25T08:45:41;8.80;;;4.33;;
71916;SDS011;59793;46.506;6.674;2024-01-25T08:48:06;4.80;;;2.80;;
71916;SDS011;59793;46.506;6.674;2024-01-25T08:50:34;6.18;;;3.75;;
71916;SDS011;59793;46.506;6.674;2024-01-25T08:52:59;6.33;;;4.40;;
71916;SDS011;59793;46.506;6.674;2024-01-25T08:55:25;6.90;;;4.60;;
71916;SDS011;59793;46.506;6.674;2024-01-25T08:57:50;8.77;;;4.53;;
71916;SDS011;59793;46.506;6.674;2024-01-25T09:00:15;6.17;;;4.10;;
71916;SDS011;59793;46.506;6.674;2024-01-25T09:02:41;6.80;;;4.50;;
71916;SDS011;59793;46.506;6.674;2024-01-25T09:05:07;8.93;;;4.20;;
71916;SDS011;59793;46.506;6.674;2024-01-25T09:07:33;4.63;;;3.60;;
71916;SDS011;59793;46.506;6.674;2024-01-25T09:09:59;8.43;;;4.90;;
71916;SDS011;59793;46.506;6.674;2024-01-25T09:12:24;6.93;;;3.90;;
71916;SDS011;59793;46.506;6.674;2024-01-25T09:14:50;6.93;;;3.70;;
71916;SDS011;59793;46.506;6.674;2024-01-25T09:17:15;8.10;;;4.33;;
71916;SDS011;59793;46.506;6.674;2024-01-25T09:19:46;6.22;;;4.35;;
71916;SDS011;59793;46.506;6.674;2024-01-25T09:22:12;7.73;;;4.00;;
71916;SDS011;59793;46.506;6.674;2024-01-25T09:24:37;9.47;;;4.20;;
71916;SDS011;59793;46.506;6.674;2024-01-25T09:27:05;6.22;;;4.70;;
71916;SDS011;59793;46.506;6.674;2024-01-25T09:29:30;6.37;;;4.10;;
71916;SDS011;59793;46.506;6.674;2024-01-25T09:31:55;6.97;;;4.93;;
71916;SDS011;59793;46.506;6.674;2024-01-25T09:34:21;6.20;;;4.23;;
71916;SDS011;59793;46.506;6.674;2024-01-25T09:36:46;9.27;;;5.13;;
71916;SDS011;59793;46.506;6.674;2024-01-25T09:39:11;10.60;;;4.47;;
71916;SDS011;59793;46.506;6.674;2024-01-25T09:41:37;7.43;;;4.47;;
71916;SDS011;59793;46.506;6.674;2024-01-25T09:44:03;6.13;;;4.03;;
71916;SDS011;59793;46.506;6.674;2024-01-25T09:46:29;9.60;;;4.33;;
71916;SDS011;59793;46.506;6.674;2024-01-25T09:48:55;8.85;;;4.53;;
71916;SDS011;59793;46.506;6.674;2024-01-25T09:51:20;4.97;;;3.40;;
71916;SDS011;59793;46.506;6.674;2024-01-25T09:53:48;5.68;;;3.33;;
71916;SDS011;59793;46.506;6.674;2024-01-25T09:56:14;5.53;;;3.23;;
71916;SDS011;59793;46.506;6.674;2024-01-25T09:58:43;5.07;;;3.08;;
71916;SDS011;59793;46.506;6.674;2024-01-25T10:01:12;7.60;;;2.45;;
71916;SDS011;59793;46.506;6.674;2024-01-25T10:03:42;5.15;;;3.05;;
71916;SDS011;59793;46.506;6.674;2024-01-25T10:06:09;5.63;;;2.95;;
71916;SDS011;59793;46.506;6.674;2024-01-25T10:11:01;5.25;;;3.10;;
71916;SDS011;59793;46.506;6.674;2024-01-25T10:13:28;5.80;;;3.07;;
71916;SDS011;59793;46.506;6.674;2024-01-25T10:15:53;7.93;;;3.60;;
71916;SDS011;59793;46.506;6.674;2024-01-25T10:18:19;4.03;;;2.80;;
71916;SDS011;59793;46.506;6.674;2024-01-25T10:20:45;5.47;;;3.20;;
71916;SDS011;59793;46.506;6.674;2024-01-25T10:23:10;4.27;;;2.73;;
71916;SDS011;59793;46.506;6.674;2024-01-25T10:25:36;7.47;;;3.00;;
71916;SDS011;59793;46.506;6.674;2024-01-25T10:28:05;5.90;;;3.00;;
71916;SDS011;59793;46.506;6.674;2024-01-25T10:30:32;6.45;;;2.45;;
71916;SDS011;59793;46.506;6.674;2024-01-25T10:33:01;3.67;;;2.30;;
71916;SDS011;59793;46.506;6.674;2024-01-25T10:35:27;4.57;;;2.73;;
71916;SDS011;59793;46.506;6.674;2024-01-25T10:37:53;4.90;;;3.08;;
71916;SDS011;59793;46.506;6.674;2024-01-25T10:40:20;4.22;;;2.63;;
71916;SDS011;59793;46.506;6.674;2024-01-25T10:42:46;9.02;;;2.72;;
71916;SDS011;59793;46.506;6.674;2024-01-25T10:45:13;4.53;;;2.45;;
71916;SDS011;59793;46.506;6.674;2024-01-25T10:47:38;4.63;;;2.40;;
71916;SDS011;59793;46.506;6.674;2024-01-25T10:50:06;4.00;;;2.58;;
71916;SDS011;59793;46.506;6.674;2024-01-25T10:52:36;4.72;;;2.65;;
71916;SDS011;59793;46.506;6.674;2024-01-25T10:55:03;5.40;;;2.50;;
71916;SDS011;59793;46.506;6.674;2024-01-25T10:57:43;5.32;;;2.28;;
71916;SDS011;59793;46.506;6.674;2024-01-25T11:00:11;4.35;;;2.45;;
71916;SDS011;59793;46.506;6.674;2024-01-25T11:02:41;3.92;;;2.58;;
71916;SDS011;59793;46.506;6.674;2024-01-25T11:05:12;4.28;;;2.50;;
71916;SDS011;59793;46.506;6.674;2024-01-25T11:07:44;3.80;;;2.42;;
71916;SDS011;59793;46.506;6.674;2024-01-25T11:10:13;3.92;;;2.67;;
71916;SDS011;59793;46.506;6.674;2024-01-25T11:12:57;6.40;;;3.25;;
71916;SDS011;59793;46.506;6.674;2024-01-25T11:15:31;4.57;;;2.90;;
71916;SDS011;59793;46.506;6.674;2024-01-25T11:17:57;5.70;;;3.63;;
71916;SDS011;59793;46.506;6.674;2024-01-25T11:20:24;3.90;;;2.47;;
71916;SDS011;59793;46.506;6.674;2024-01-25T11:22:58;4.72;;;3.10;;
71916;SDS011;59793;46.506;6.674;2024-01-25T11:25:27;14.05;;;6.13;;
71916;SDS011;59793;46.506;6.674;2024-01-25T11:27:56;5.10;;;2.67;;
71916;SDS011;59793;46.506;6.674;2024-01-25T11:30:22;5.20;;;2.78;;
71916;SDS011;59793;46.506;6.674;2024-01-25T11:32:48;7.37;;;3.37;;
71916;SDS011;59793;46.506;6.674;2024-01-25T11:35:13;4.23;;;3.23;;
71916;SDS011;59793;46.506;6.674;2024-01-25T11:37:44;5.28;;;3.65;;
71916;SDS011;59793;46.506;6.674;2024-01-25T11:40:10;9.10;;;4.45;;
71916;SDS011;59793;46.506;6.674;2024-01-25T11:42:36;6.03;;;3.85;;
71916;SDS011;59793;46.506;6.674;2024-01-25T11:45:02;5.63;;;3.43;;
71916;SDS011;59793;46.506;6.674;2024-01-25T11:47:28;7.63;;;3.10;;
71916;SDS011;59793;46.506;6.674;2024-01-25T11:49:53;3.87;;;2.63;;
71916;SDS011;59793;46.506;6.674;2024-01-25T11:52:19;3.80;;;2.73;;
71916;SDS011;59793;46.506;6.674;2024-01-25T11:54:44;4.27;;;2.77;;
71916;SDS011;59793;46.506;6.674;2024-01-25T11:57:09;3.80;;;2.63;;
71916;SDS011;59793;46.506;6.674;2024-01-25T11:59:35;5.23;;;2.13;;
71916;SDS011;59793;46.506;6.674;2024-01-25T12:02:01;3.13;;;2.20;;
71916;SDS011;59793;46.506;6.674;2024-01-25T12:04:26;4.77;;;2.60;;
71916;SDS011;59793;46.506;6.674;2024-01-25T12:06:52;6.45;;;2.25;;
71916;SDS011;59793;46.506;6.674;2024-01-25T12:09:18;4.63;;;2.20;;
71916;SDS011;59793;46.506;6.674;2024-01-25T12:11:43;6.30;;;2.10;;
71916;SDS011;59793;46.506;6.674;2024-01-25T12:14:11;3.47;;;1.90;;
71916;SDS011;59793;46.506;6.674;2024-01-25T12:16:37;3.35;;;2.05;;
71916;SDS011;59793;46.506;6.674;2024-01-25T12:19:02;2.87;;;1.63;;
71916;SDS011;59793;46.506;6.674;2024-01-25T12:21:28;3.77;;;2.30;;
71916;SDS011;59793;46.506;6.674;2024-01-25T12:23:53;3.60;;;2.03;;
71916;SDS011;59793;46.506;6.674;2024-01-25T12:26:18;4.10;;;1.80;;
71916;SDS011;59793;46.506;6.674;2024-01-25T12:28:44;3.17;;;1.87;;
71916;SDS011;59793;46.506;6.674;2024-01-25T12:31:10;6.82;;;2.28;;
71916;SDS011;59793;46.506;6.674;2024-01-25T12:33:36;3.70;;;1.90;;
71916;SDS011;59793;46.506;6.674;2024-01-25T12:36:04;3.53;;;2.00;;
71916;SDS011;59793;46.506;6.674;2024-01-25T12:38:30;4.25;;;1.90;;
71916;SDS011;59793;46.506;6.674;2024-01-25T12:40:58;6.70;;;2.42;;
71916;SDS011;59793;46.506;6.674;2024-01-25T12:43:24;5.40;;;1.90;;
71916;SDS011;59793;46.506;6.674;2024-01-25T12:45:50;3.80;;;2.47;;
71916;SDS011;59793;46.506;6.674;2024-01-25T12:48:15;3.23;;;1.93;;
71916;SDS011;59793;46.506;6.674;2024-01-25T12:50:41;4.40;;;2.00;;
71916;SDS011;59793;46.506;6.674;2024-01-25T12:53:06;6.00;;;2.03;;
71916;SDS011;59793;46.506;6.674;2024-01-25T12:55:32;4.43;;;1.67;;
71916;SDS011;59793;46.506;6.674;2024-01-25T12:57:58;3.53;;;1.92;;
71916;SDS011;59793;46.506;6.674;2024-01-25T13:00:24;2.05;;;1.33;;
71916;SDS011;59793;46.506;6.674;2024-01-25T13:02:49;3.27;;;1.20;;
71916;SDS011;59793;46.506;6.674;2024-01-25T13:05:15;3.78;;;1.55;;
71916;SDS011;59793;46.506;6.674;2024-01-25T13:07:40;2.67;;;1.50;;
71916;SDS011;59793;46.506;6.674;2024-01-25T13:10:07;2.67;;;1.40;;
71916;SDS011;59793;46.506;6.674;2024-01-25T13:12:33;2.10;;;1.20;;
71916;SDS011;59793;46.506;6.674;2024-01-25T13:14:59;1.97;;;1.23;;
71916;SDS011;59793;46.506;6.674;2024-01-25T13:17:24;3.23;;;1.43;;
71916;SDS011;59793;46.506;6.674;2024-01-25T13:19:50;11.20;;;2.20;;
71916;SDS011;59793;46.506;6.674;2024-01-25T13:22:16;6.23;;;1.70;;
71916;SDS011;59793;46.506;6.674;2024-01-25T13:24:42;2.80;;;1.77;;
71916;SDS011;59793;46.506;6.674;2024-01-25T13:27:08;3.35;;;1.77;;
71916;SDS011;59793;46.506;6.674;2024-01-25T13:29:33;2.67;;;1.63;;
71916;SDS011;59793;46.506;6.674;2024-01-25T13:31:58;3.23;;;1.80;;
71916;SDS011;59793;46.506;6.674;2024-01-25T13:34:24;3.27;;;1.57;;
71916;SDS011;59793;46.506;6.674;2024-01-25T13:36:49;2.57;;;1.90;;
71916;SDS011;59793;46.506;6.674;2024-01-25T13:39:14;7.60;;;2.80;;
71916;SDS011;59793;46.506;6.674;2024-01-25T13:41:40;6.17;;;1.87;;
71916;SDS011;59793;46.506;6.674;2024-01-25T13:44:05;6.13;;;1.73;;
71916;SDS011;59793;46.506;6.674;2024-01-25T13:46:30;6.83;;;2.00;;
71916;SDS011;59793;46.506;6.674;2024-01-25T13:48:55;6.43;;;2.00;;
71916;SDS011;59793;46.506;6.674;2024-01-25T13:51:21;5.20;;;2.00;;
71916;SDS011;59793;46.506;6.674;2024-01-25T13:53:46;3.13;;;1.43;;
71916;SDS011;59793;46.506;6.674;2024-01-25T13:56:12;2.55;;;1.33;;
71916;SDS011;59793;46.506;6.674;2024-01-25T13:58:38;3.13;;;1.63;;
71916;SDS011;59793;46.506;6.674;2024-01-25T14:01:03;3.23;;;1.70;;
71916;SDS011;59793;46.506;6.674;2024-01-25T14:03:29;2.50;;;1.42;;
71916;SDS011;59793;46.506;6.674;2024-01-25T14:05:56;3.05;;;1.13;;
71916;SDS011;59793;46.506;6.674;2024-01-25T14:08:22;4.97;;;1.42;;
71916;SDS011;59793;46.506;6.674;2024-01-25T14:10:47;3.90;;;1.30;;
71916;SDS011;59793;46.506;6.674;2024-01-25T14:13:13;4.22;;;1.42;;
71916;SDS011;59793;46.506;6.674;2024-01-25T14:15:38;3.07;;;1.50;;
71916;SDS011;59793;46.506;6.674;2024-01-25T14:18:04;2.70;;;1.30;;
71916;SDS011;59793;46.506;6.674;2024-01-25T14:20:29;2.90;;;1.63;;
71916;SDS011;59793;46.506;6.674;2024-01-25T14:22:55;3.08;;;1.77;;
71916;SDS011;59793;46.506;6.674;2024-01-25T14:25:20;2.77;;;1.50;;
71916;SDS011;59793;46.506;6.674;2024-01-25T14:27:45;3.97;;;1.47;;
71916;SDS011;59793;46.506;6.674;2024-01-25T14:30:13;3.17;;;1.50;;
71916;SDS011;59793;46.506;6.674;2024-01-25T14:32:39;2.15;;;1.30;;
71916;SDS011;59793;46.506;6.674;2024-01-25T14:35:05;2.15;;;1.40;;
71916;SDS011;59793;46.506;6.674;2024-01-25T14:37:31;2.78;;;1.38;;
71916;SDS011;59793;46.506;6.674;2024-01-25T14:39:57;2.10;;;1.30;;
71916;SDS011;59793;46.506;6.674;2024-01-25T14:42:22;4.30;;;1.40;;
71916;SDS011;59793;46.506;6.674;2024-01-25T14:44:47;8.13;;;2.07;;